Time;durP1;ratioP1;P1;durP2;ratioP2;P2;SDS_P1;SDS_P2;PMS_P1;PMS_P2;Temp;Humidity;BMP_temperature;BMP_pressure;BME280_temperature;BME280_humidity;BME280_pressure;Samples;Min_cycle;Max_cycle;Signal;HPM_P1;HPM_P2
2021/08/31 00:00:10;;;;;;;13.70;8.95;;;;;;;14.48;86.77;102555.97;682948;29;1071;-64
2021/08/31 00:00:33;;;;;;;13.10;8.73;;;;;;;14.48;86.61;102557.78;682927;29;1054;-64
2021/08/31 00:00:54;;;;;;;15.27;8.60;;;;;;;14.47;86.63;102556.03;682766;29;908;-64
2021/08/31 00:01:17;;;;;;;14.23;8.77;;;;;;;14.45;86.85;102563.16;682908;29;1063;-64
2021/08/31 00:01:37;;;;;;;13.20;8.50;;;;;;;14.47;86.81;102558.69;682752;28;896;-65
2021/08/31 00:01:57;;;;;;;15.23;8.80;;;;;;;14.46;87.09;102562.28;682897;29;1004;-64
2021/08/31 00:02:18;;;;;;;14.52;8.57;;;;;;;14.46;87.14;102568.44;682990;28;864;-65
2021/08/31 00:02:38;;;;;;;13.47;8.53;;;;;;;14.46;86.99;102564.94;682826;29;924;-64
2021/08/31 00:02:58;;;;;;;14.10;8.93;;;;;;;14.45;87.27;102560.53;682545;29;887;-64
2021/08/31 00:03:20;;;;;;;14.18;8.82;;;;;;;14.44;86.90;102561.44;682951;29;897;-64
2021/08/31 00:03:40;;;;;;;14.25;8.65;;;;;;;14.42;87.24;102564.16;685599;28;1447;-64
2021/08/31 00:04:00;;;;;;;15.32;8.93;;;;;;;14.42;87.12;102560.66;688284;28;927;-64
2021/08/31 00:04:21;;;;;;;16.00;8.37;;;;;;;14.44;87.02;102566.75;688187;28;963;-64
2021/08/31 00:04:41;;;;;;;14.43;8.87;;;;;;;14.46;87.23;102564.94;688318;28;1063;-64
2021/08/31 00:05:03;;;;;;;14.13;8.93;;;;;;;14.47;86.89;102566.66;688272;28;884;-65
2021/08/31 00:05:23;;;;;;;14.18;8.93;;;;;;;14.46;86.86;102556.97;688010;28;1168;-63
2021/08/31 00:05:43;;;;;;;13.65;8.75;;;;;;;14.47;86.94;102564.00;688108;28;1524;-64
2021/08/31 00:06:03;;;;;;;12.00;8.60;;;;;;;14.46;86.96;102556.97;685047;28;1458;-64
2021/08/31 00:06:24;;;;;;;14.17;8.60;;;;;;;14.47;87.21;102558.69;685563;28;924;-64
2021/08/31 00:06:45;;;;;;;14.50;9.18;;;;;;;14.45;86.86;102555.22;685598;28;853;-64
2021/08/31 00:07:05;;;;;;;14.30;8.77;;;;;;;14.45;87.11;102561.41;683113;28;1450;-64
2021/08/31 00:07:25;;;;;;;14.60;8.67;;;;;;;14.44;86.97;102558.78;682888;29;921;-64
2021/08/31 00:07:48;;;;;;;14.40;8.50;;;;;;;14.45;87.18;102571.13;682853;29;886;-64
2021/08/31 00:08:09;;;;;;;14.82;8.40;;;;;;;14.45;86.96;102557.88;684650;28;1631;-64
2021/08/31 00:08:30;;;;;;;13.03;8.50;;;;;;;14.43;87.28;102559.72;685297;28;1961;-64
2021/08/31 00:08:50;;;;;;;14.40;8.68;;;;;;;14.44;87.05;102558.78;685302;28;1529;-63
2021/08/31 00:09:10;;;;;;;14.43;8.27;;;;;;;14.44;87.37;102553.50;685456;28;1391;-63
2021/08/31 00:09:30;;;;;;;15.18;8.70;;;;;;;14.47;87.25;102559.56;685465;28;1035;-63
2021/08/31 00:09:51;;;;;;;15.30;8.67;;;;;;;14.46;87.11;102559.63;685539;28;948;-63
2021/08/31 00:10:12;;;;;;;14.90;8.77;;;;;;;14.46;87.12;102562.28;685510;28;889;-63
2021/08/31 00:10:32;;;;;;;13.75;8.50;;;;;;;14.46;87.04;102565.78;685521;28;1283;-64
2021/08/31 00:10:53;;;;;;;11.47;8.10;;;;;;;14.46;87.23;102559.63;685537;28;864;-64
2021/08/31 00:11:13;;;;;;;12.67;8.10;;;;;;;14.49;86.98;102568.34;685552;28;1115;-63
2021/08/31 00:11:33;;;;;;;13.88;8.20;;;;;;;14.48;87.14;102561.28;685575;28;888;-64
2021/08/31 00:11:54;;;;;;;12.73;8.40;;;;;;;14.49;86.91;102556.88;685439;28;975;-62
2021/08/31 00:12:14;;;;;;;14.13;8.30;;;;;;;14.51;87.00;102555.06;685570;28;995;-63
2021/08/31 00:12:34;;;;;;;14.10;8.88;;;;;;;14.50;86.79;102558.66;685649;28;869;-63
2021/08/31 00:12:55;;;;;;;13.20;8.83;;;;;;;14.50;86.97;102558.66;685071;28;820;-63
2021/08/31 00:13:15;;;;;;;12.35;8.05;;;;;;;14.53;86.72;102560.34;685579;28;900;-64
2021/08/31 00:13:35;;;;;;;13.47;8.53;;;;;;;14.52;86.84;102562.13;685583;28;872;-64
2021/08/31 00:13:55;;;;;;;13.60;8.53;;;;;;;14.52;86.77;102566.53;685476;28;1027;-63
2021/08/31 00:14:19;;;;;;;14.30;8.57;;;;;;;14.50;86.75;102558.66;685212;28;1023;-63
2021/08/31 00:14:42;;;;;;;15.48;8.60;;;;;;;14.49;86.52;102559.53;685263;28;845;-64
2021/08/31 00:15:04;;;;;;;13.30;8.30;;;;;;;14.47;86.62;102556.91;685399;28;945;-64
2021/08/31 00:15:24;;;;;;;15.18;8.63;;;;;;;14.48;86.83;102560.44;683869;28;1534;-64
2021/08/31 00:15:44;;;;;;;13.57;8.73;;;;;;;14.50;86.55;102569.25;685098;28;1270;-63
2021/08/31 00:16:05;;;;;;;11.48;8.32;;;;;;;14.52;86.70;102564.78;685370;28;882;-63
2021/08/31 00:16:25;;;;;;;12.77;8.30;;;;;;;14.54;86.74;102565.59;685481;28;902;-63
2021/08/31 00:16:46;;;;;;;14.67;9.07;;;;;;;14.51;86.70;102554.19;685323;28;1619;-63
2021/08/31 00:17:06;;;;;;;13.60;8.80;;;;;;;14.51;86.53;102555.06;682812;28;1474;-63
2021/08/31 00:17:30;;;;;;;14.43;8.40;;;;;;;14.52;86.46;102555.94;682775;29;900;-63
2021/08/31 00:18:02;;;;;;;13.68;8.38;;;;;;;14.51;86.46;102562.16;682842;28;957;-63
2021/08/31 00:18:22;;;;;;;14.30;8.93;;;;;;;14.51;86.43;102559.50;682612;28;956;-64
2021/08/31 00:18:43;;;;;;;12.33;8.63;;;;;;;14.52;86.41;102561.22;682915;28;907;-63
2021/08/31 00:19:03;;;;;;;12.27;8.33;;;;;;;14.53;86.68;102557.69;682792;28;1411;-63
2021/08/31 00:19:26;;;;;;;12.23;8.18;;;;;;;14.52;86.55;102556.81;682719;28;1004;-64
2021/08/31 00:19:46;;;;;;;13.93;8.18;;;;;;;14.51;86.68;102562.16;682835;29;868;-63
2021/08/31 00:20:08;;;;;;;13.47;8.30;;;;;;;14.52;86.44;102559.47;682854;29;988;-63
2021/08/31 00:20:29;;;;;;;14.02;8.55;;;;;;;14.52;86.51;102559.47;682774;28;935;-63
2021/08/31 00:20:49;;;;;;;13.65;8.63;;;;;;;14.52;86.42;102563.88;682898;28;999;-63
2021/08/31 00:21:11;;;;;;;11.80;8.27;;;;;;;14.52;86.67;102562.13;682878;28;866;-63
2021/08/31 00:21:34;;;;;;;12.82;8.52;;;;;;;14.49;86.42;102555.09;682784;28;917;-64
2021/08/31 00:21:54;;;;;;;13.88;8.70;;;;;;;14.49;86.69;102562.19;682906;28;928;-62
2021/08/31 00:22:15;;;;;;;14.50;8.40;;;;;;;14.47;86.59;102561.34;682779;29;964;-63
2021/08/31 00:22:38;;;;;;;14.00;8.20;;;;;;;14.45;86.67;102560.53;682809;28;952;-64
2021/08/31 00:22:58;;;;;;;14.60;8.55;;;;;;;14.45;86.58;102560.53;682409;28;908;-63
2021/08/31 00:23:18;;;;;;;14.63;8.53;;;;;;;14.45;86.62;102563.16;683636;28;1478;-63
2021/08/31 00:23:39;;;;;;;14.15;8.60;;;;;;;14.45;86.77;102561.41;688100;28;837;-64
2021/08/31 00:23:59;;;;;;;14.50;8.80;;;;;;;14.44;86.73;102558.78;688118;28;997;-63
2021/08/31 00:24:19;;;;;;;13.87;8.50;;;;;;;14.44;86.56;102564.09;688227;28;943;-64
2021/08/31 00:24:41;;;;;;;12.40;7.95;;;;;;;14.43;86.63;102562.38;688161;28;896;-64
2021/08/31 00:25:03;;;;;;;12.25;7.80;;;;;;;14.35;86.70;102559.97;688153;28;868;-63
2021/08/31 00:25:27;;;;;;;14.93;8.68;;;;;;;14.35;86.75;102564.38;686582;28;1564;-64
2021/08/31 00:25:52;;;;;;;13.88;8.65;;;;;;;14.34;86.92;102562.63;685396;28;961;-63
2021/08/31 00:26:12;;;;;;;14.88;8.98;;;;;;;14.32;87.04;102564.50;685515;28;856;-64
2021/08/31 00:26:32;;;;;;;14.67;8.60;;;;;;;14.32;87.33;102562.69;685481;28;893;-64
2021/08/31 00:26:53;;;;;;;13.23;8.43;;;;;;;14.32;87.24;102564.50;685461;28;884;-64
2021/08/31 00:27:22;;;;;;;13.68;8.55;;;;;;;14.34;87.16;102567.94;685621;28;912;-64
2021/08/31 00:27:42;;;;;;;13.10;8.40;;;;;;;14.35;87.10;102559.97;685417;28;900;-64
2021/08/31 00:28:03;;;;;;;11.47;7.73;;;;;;;14.34;87.19;102563.50;685535;28;892;-64
2021/08/31 00:28:23;;;;;;;12.63;8.03;;;;;;;14.36;87.14;102563.47;685506;28;1903;-64
2021/08/31 00:28:43;;;;;;;14.20;8.20;;;;;;;14.32;87.05;102564.50;685279;28;1085;-65
2021/08/31 00:29:04;;;;;;;13.18;8.30;;;;;;;14.31;87.06;102563.59;685381;28;1313;-63
2021/08/31 00:29:24;;;;;;;13.00;8.10;;;;;;;14.28;87.33;102558.41;685480;28;821;-63
2021/08/31 00:29:44;;;;;;;13.97;8.23;;;;;;;14.29;87.48;102562.78;685456;28;1054;-63
2021/08/31 00:30:05;;;;;;;13.65;8.82;;;;;;;14.28;87.38;102562.81;685619;28;1020;-63
2021/08/31 00:30:26;;;;;;;13.07;8.20;;;;;;;14.29;87.43;102569.88;685667;28;1027;-64
2021/08/31 00:30:46;;;;;;;13.37;8.63;;;;;;;14.29;87.45;102564.56;685579;28;933;-64
2021/08/31 00:31:06;;;;;;;13.03;8.50;;;;;;;14.26;87.52;102570.84;685716;28;807;-64
2021/08/31 00:31:26;;;;;;;15.48;8.68;;;;;;;14.28;87.49;102568.13;685393;28;1015;-64
2021/08/31 00:31:48;;;;;;;12.90;8.60;;;;;;;14.27;87.64;102561.94;685530;28;971;-63
2021/08/31 00:32:09;;;;;;;14.30;8.93;;;;;;;14.26;87.45;102565.53;683323;28;1552;-64
2021/08/31 00:32:29;;;;;;;14.30;8.60;;;;;;;14.29;87.61;102564.56;682860;28;1077;-64
2021/08/31 00:32:55;;;;;;;12.67;9.07;;;;;;;14.27;87.51;102561.09;682335;28;1044;-63
2021/08/31 00:33:18;;;;;;;12.43;8.55;;;;;;;14.25;87.33;102564.66;682832;29;913;-64
2021/08/31 00:33:38;;;;;;;11.80;8.32;;;;;;;14.28;87.36;102568.13;685420;28;1431;-65
2021/08/31 00:34:02;;;;;;;12.20;8.23;;;;;;;14.22;87.50;102564.75;688164;28;1229;-64
2021/08/31 00:34:22;;;;;;;13.13;8.65;;;;;;;14.23;87.58;102568.28;686814;28;1414;-65
2021/08/31 00:34:42;;;;;;;14.20;8.40;;;;;;;14.22;87.65;102570.06;688015;28;1494;-64
2021/08/31 00:35:04;;;;;;;14.57;8.63;;;;;;;14.25;87.74;102569.09;687985;28;943;-64
2021/08/31 00:35:27;;;;;;;14.63;8.50;;;;;;;14.25;87.65;102569.97;686889;28;1544;-64
2021/08/31 00:35:47;;;;;;;15.25;8.52;;;;;;;14.21;87.36;102573.63;685599;28;944;-64
2021/08/31 00:36:08;;;;;;;12.50;8.23;;;;;;;14.21;87.94;102570.97;685434;28;1019;-64
2021/08/31 00:36:28;;;;;;;14.27;8.07;;;;;;;14.22;87.46;102567.41;685545;28;1104;-64
2021/08/31 00:36:48;;;;;;;14.67;8.10;;;;;;;14.22;87.46;102559.44;685528;28;979;-64
2021/08/31 00:37:09;;;;;;;13.00;8.23;;;;;;;14.25;87.34;102567.31;685515;28;1217;-64
2021/08/31 00:37:29;;;;;;;13.13;8.13;;;;;;;14.28;87.58;102573.44;685602;28;814;-64
2021/08/31 00:37:50;;;;;;;13.60;8.10;;;;;;;14.28;87.48;102569.00;685412;28;1027;-64
2021/08/31 00:38:11;;;;;;;13.70;8.23;;;;;;;14.30;87.39;102572.47;685557;28;885;-64
2021/08/31 00:38:32;;;;;;;13.83;8.47;;;;;;;14.33;87.43;102572.38;685671;28;1007;-64
2021/08/31 00:38:56;;;;;;;15.05;8.80;;;;;;;14.34;87.23;102567.94;685481;28;980;-64
2021/08/31 00:39:16;;;;;;;13.40;8.20;;;;;;;14.31;87.14;102574.19;685468;28;1133;-64
2021/08/31 00:39:37;;;;;;;13.00;8.13;;;;;;;14.29;87.31;102570.75;685632;28;771;-64
2021/08/31 00:39:57;;;;;;;12.53;7.90;;;;;;;14.31;87.14;102573.34;685431;28;995;-64
2021/08/31 00:40:19;;;;;;;12.18;8.20;;;;;;;14.31;87.13;102573.34;685650;28;1017;-65
2021/08/31 00:40:39;;;;;;;13.68;8.35;;;;;;;14.27;87.22;102566.38;685393;28;1027;-64
2021/08/31 00:41:00;;;;;;;13.45;8.20;;;;;;;14.26;87.23;102570.84;684419;28;1481;-64
2021/08/31 00:41:20;;;;;;;13.07;8.40;;;;;;;14.27;87.45;102566.38;684991;28;1477;-64
2021/08/31 00:41:40;;;;;;;14.03;8.30;;;;;;;14.27;87.19;102569.03;685430;28;817;-64
2021/08/31 00:42:01;;;;;;;12.53;7.73;;;;;;;14.28;87.51;102569.00;685725;28;1292;-64
2021/08/31 00:42:21;;;;;;;12.80;7.75;;;;;;;14.28;87.46;102570.78;685543;28;893;-64
2021/08/31 00:42:41;;;;;;;11.97;8.17;;;;;;;14.28;87.24;102568.13;685385;28;954;-64
2021/08/31 00:43:06;;;;;;;14.80;8.20;;;;;;;14.28;87.28;102570.78;685406;28;1537;-65
2021/08/31 00:43:26;;;;;;;12.10;7.85;;;;;;;14.28;87.20;102570.78;685541;28;1326;-64
2021/08/31 00:43:48;;;;;;;12.18;7.90;;;;;;;14.27;87.38;102572.56;685518;28;949;-63
2021/08/31 00:44:22;;;;;;;13.30;8.00;;;;;;;14.26;87.12;102565.53;685519;28;958;-63
2021/08/31 00:44:43;;;;;;;14.00;8.48;;;;;;;14.28;87.33;102565.47;685547;28;1031;-63
2021/08/31 00:45:03;;;;;;;14.53;8.47;;;;;;;14.25;87.45;102569.97;685552;28;1552;-63
2021/08/31 00:45:24;;;;;;;13.55;7.95;;;;;;;14.25;87.37;102572.63;682493;29;1517;-66
2021/08/31 00:45:54;;;;;;;13.43;7.97;;;;;;;14.28;87.12;102568.13;682949;28;920;-64
2021/08/31 00:46:19;;;;;;;13.18;8.02;;;;;;;14.25;87.23;102567.31;682673;29;873;-64
2021/08/31 00:46:39;;;;;;;14.10;8.60;;;;;;;14.26;87.39;102570.84;682859;28;880;-64
2021/08/31 00:47:06;;;;;;;13.07;8.57;;;;;;;14.28;87.05;102573.44;683877;28;1498;-64
2021/08/31 00:47:26;;;;;;;11.60;8.02;;;;;;;14.27;86.89;102567.25;682775;28;909;-64
2021/08/31 00:47:47;;;;;;;12.50;8.27;;;;;;;14.29;87.30;102569.88;682792;29;873;-64
2021/08/31 00:48:07;;;;;;;12.68;8.20;;;;;;;14.25;87.27;102567.31;682800;28;1061;-63
2021/08/31 00:48:27;;;;;;;13.33;7.70;;;;;;;14.29;86.94;102569.88;682699;29;1952;-64
2021/08/31 00:48:51;;;;;;;12.90;7.93;;;;;;;14.28;87.12;102573.44;682885;29;872;-63
2021/08/31 00:49:12;;;;;;;12.82;8.15;;;;;;;14.28;87.04;102568.13;682594;29;1261;-63
2021/08/31 00:49:32;;;;;;;11.77;8.03;;;;;;;14.29;87.23;102567.22;682817;28;854;-63
2021/08/31 00:49:53;;;;;;;12.13;7.88;;;;;;;14.29;87.11;102570.75;682818;28;793;-63
2021/08/31 00:50:16;;;;;;;12.07;8.00;;;;;;;14.29;87.15;102567.22;682830;29;1011;-64
2021/08/31 00:50:38;;;;;;;12.05;8.25;;;;;;;14.29;87.15;102564.56;682877;28;849;-64
2021/08/31 00:50:58;;;;;;;11.80;7.93;;;;;;;14.30;87.12;102568.97;682876;28;837;-64
2021/08/31 00:51:21;;;;;;;13.27;8.02;;;;;;;14.23;87.24;102571.78;682893;29;1296;-64
2021/08/31 00:51:41;;;;;;;14.25;8.32;;;;;;;14.21;87.03;102573.63;682676;28;997;-64
2021/08/31 00:52:03;;;;;;;13.67;8.77;;;;;;;14.21;87.01;102568.34;682709;28;830;-64
2021/08/31 00:52:23;;;;;;;14.52;8.25;;;;;;;14.18;87.12;102572.84;682720;29;1057;-64
2021/08/31 00:52:43;;;;;;;12.80;8.02;;;;;;;14.15;87.14;102571.16;682261;29;1273;-64
2021/08/31 00:53:04;;;;;;;12.97;8.33;;;;;;;14.16;87.24;102570.22;684650;28;1506;-64
2021/08/31 00:53:24;;;;;;;12.53;8.40;;;;;;;14.19;87.33;102570.16;685532;28;942;-64
2021/08/31 00:53:45;;;;;;;13.23;8.20;;;;;;;14.19;87.34;102572.78;685287;28;975;-63
2021/08/31 00:54:05;;;;;;;13.53;7.97;;;;;;;14.19;87.18;102572.78;685503;28;915;-64
2021/08/31 00:54:28;;;;;;;11.98;8.18;;;;;;;14.20;87.43;102573.66;685569;28;892;-63
2021/08/31 00:54:48;;;;;;;13.38;8.52;;;;;;;14.17;87.26;102565.78;685400;28;955;-64
2021/08/31 00:55:10;;;;;;;13.30;8.40;;;;;;;14.18;87.36;102565.75;685288;28;1541;-63
2021/08/31 00:55:30;;;;;;;12.25;8.00;;;;;;;14.21;87.27;102573.63;682736;28;956;-63
2021/08/31 00:55:56;;;;;;;12.95;8.32;;;;;;;14.21;87.09;102570.09;682707;28;872;-64
2021/08/31 00:56:18;;;;;;;12.93;8.00;;;;;;;14.21;87.19;102567.44;682851;28;869;-64
2021/08/31 00:56:38;;;;;;;13.10;8.30;;;;;;;14.23;87.22;102569.13;682731;29;952;-64
2021/08/31 00:57:00;;;;;;;13.68;8.00;;;;;;;14.21;87.28;102567.44;682853;28;917;-64
2021/08/31 00:57:20;;;;;;;13.75;8.77;;;;;;;14.17;87.27;102566.66;682734;28;967;-63
2021/08/31 00:57:44;;;;;;;12.47;8.27;;;;;;;14.17;87.37;102576.41;682624;28;1188;-64
2021/08/31 00:58:05;;;;;;;12.48;8.18;;;;;;;14.18;87.22;102568.41;682799;28;956;-64
2021/08/31 00:58:25;;;;;;;12.50;8.00;;;;;;;14.17;87.13;102571.97;682773;28;868;-64
2021/08/31 00:58:46;;;;;;;13.07;8.70;;;;;;;14.20;87.34;102566.56;682842;29;882;-64
2021/08/31 00:59:06;;;;;;;12.45;8.43;;;;;;;14.18;87.47;102572.84;682589;28;1277;-64
2021/08/31 00:59:26;;;;;;;14.05;8.27;;;;;;;14.11;87.61;102561.56;682786;29;872;-63
2021/08/31 00:59:47;;;;;;;14.03;8.43;;;;;;;14.14;87.52;102566.78;682727;29;1022;-64
2021/08/31 01:00:10;;;;;;;14.55;8.35;;;;;;;14.16;87.63;102564.06;682717;28;908;-64
2021/08/31 01:00:30;;;;;;;13.15;8.10;;;;;;;14.17;87.31;102566.66;683090;28;972;-64
2021/08/31 01:00:51;;;;;;;13.07;7.97;;;;;;;14.17;87.59;102571.09;683316;28;1131;-64
2021/08/31 01:01:11;;;;;;;12.33;8.03;;;;;;;14.14;87.31;102569.44;683279;29;1090;-64
2021/08/31 01:01:32;;;;;;;11.63;8.27;;;;;;;14.18;87.28;102568.41;683449;28;987;-64
2021/08/31 01:01:54;;;;;;;12.75;8.25;;;;;;;14.21;87.46;102573.63;683257;28;888;-64
2021/08/31 01:02:14;;;;;;;12.80;8.18;;;;;;;14.18;87.31;102568.41;683414;28;903;-63
2021/08/31 01:02:35;;;;;;;11.50;8.03;;;;;;;14.19;87.15;102570.16;683355;28;983;-63
2021/08/31 01:02:55;;;;;;;13.02;8.38;;;;;;;14.19;87.25;102572.78;682760;28;1043;-63
2021/08/31 01:03:18;;;;;;;13.37;7.93;;;;;;;14.21;87.32;102575.38;683298;29;995;-63
2021/08/31 01:03:44;;;;;;;13.80;8.30;;;;;;;14.21;87.33;102570.97;683343;28;915;-63
2021/08/31 01:04:07;;;;;;;12.77;8.23;;;;;;;14.19;87.19;102570.16;683171;28;835;-63
2021/08/31 01:04:29;;;;;;;12.52;8.50;;;;;;;14.22;87.21;102569.19;685468;28;1635;-62
2021/08/31 01:04:50;;;;;;;14.32;8.25;;;;;;;14.19;86.91;102575.44;688615;28;942;-63
2021/08/31 01:05:10;;;;;;;12.83;8.47;;;;;;;14.20;87.12;102571.88;687728;28;1540;-63
2021/08/31 01:05:32;;;;;;;12.82;8.32;;;;;;;14.20;87.27;102571.00;686006;28;1039;-63
2021/08/31 01:05:55;;;;;;;12.50;7.88;;;;;;;14.22;87.07;102575.38;685849;28;844;-63
2021/08/31 01:06:16;;;;;;;12.75;7.88;;;;;;;14.23;87.01;102566.47;686012;28;876;-63
2021/08/31 01:06:36;;;;;;;13.43;8.23;;;;;;;14.20;87.11;102566.56;684302;28;1576;-63
2021/08/31 01:06:57;;;;;;;13.77;8.63;;;;;;;14.20;87.11;102573.66;683343;29;976;-63
2021/08/31 01:07:20;;;;;;;12.25;7.97;;;;;;;14.18;87.12;102571.06;683381;28;816;-63
2021/08/31 01:07:41;;;;;;;13.73;8.27;;;;;;;14.16;86.97;102570.22;683297;29;898;-64
2021/08/31 01:08:05;;;;;;;15.02;8.75;;;;;;;14.21;87.10;102572.75;683213;29;852;-64
2021/08/31 01:08:27;;;;;;;13.63;8.20;;;;;;;14.18;87.21;102573.72;683228;28;1974;-63
2021/08/31 01:08:47;;;;;;;14.80;7.95;;;;;;;14.19;87.05;102575.44;683200;28;1069;-63
2021/08/31 01:09:11;;;;;;;13.20;7.90;;;;;;;14.22;87.18;102575.38;683226;28;1321;-63
2021/08/31 01:09:32;;;;;;;13.48;8.20;;;;;;;14.23;86.95;102570.91;683263;29;1083;-64
2021/08/31 01:09:55;;;;;;;13.57;8.05;;;;;;;14.23;86.80;102571.78;683353;28;943;-64
2021/08/31 01:10:16;;;;;;;13.15;8.32;;;;;;;14.23;86.98;102577.09;683235;28;896;-64
2021/08/31 01:10:37;;;;;;;13.52;8.20;;;;;;;14.21;86.74;102570.97;683297;28;624;-64
2021/08/31 01:10:59;;;;;;;12.07;7.93;;;;;;;14.18;86.89;102573.72;683438;28;975;-64
2021/08/31 01:11:20;;;;;;;11.35;8.20;;;;;;;14.19;87.25;102569.28;683251;28;915;-63
2021/08/31 01:11:40;;;;;;;12.57;8.27;;;;;;;14.18;87.20;102579.03;683349;29;952;-65
2021/08/31 01:12:01;;;;;;;10.77;8.00;;;;;;;14.18;87.17;102575.50;683288;29;865;-64
2021/08/31 01:12:22;;;;;;;11.10;8.00;;;;;;;14.14;87.15;102576.47;683136;29;935;-64
2021/08/31 01:12:43;;;;;;;13.38;8.80;;;;;;;14.15;87.13;102573.81;683108;28;904;-63
2021/08/31 01:13:04;;;;;;;13.13;8.65;;;;;;;14.16;87.26;102569.38;683178;28;1098;-63
2021/08/31 01:13:24;;;;;;;13.40;8.50;;;;;;;14.16;87.10;102572.88;683285;28;823;-63
2021/08/31 01:13:45;;;;;;;12.05;8.13;;;;;;;14.16;87.21;102575.53;683286;28;1008;-63
2021/08/31 01:14:07;;;;;;;13.55;8.65;;;;;;;14.16;86.94;102578.19;683164;29;873;-62
2021/08/31 01:14:28;;;;;;;12.10;8.23;;;;;;;14.15;87.32;102573.81;683180;28;880;-63
2021/08/31 01:14:48;;;;;;;12.40;8.17;;;;;;;14.15;87.30;102575.59;683387;29;809;-63
2021/08/31 01:15:12;;;;;;;13.48;8.27;;;;;;;14.12;87.27;102578.34;684689;28;1445;-64
2021/08/31 01:15:32;;;;;;;13.43;8.00;;;;;;;14.09;87.41;102568.69;683039;29;2240;-63
2021/08/31 01:15:52;;;;;;;13.30;8.23;;;;;;;14.09;87.33;102573.97;683122;29;995;-63
2021/08/31 01:16:12;;;;;;;13.63;8.03;;;;;;;14.11;87.32;102572.16;682963;29;1002;-62
2021/08/31 01:16:33;;;;;;;12.13;8.03;;;;;;;14.12;87.37;102573.91;683113;29;884;-63
2021/08/31 01:16:54;;;;;;;12.50;8.20;;;;;;;14.11;87.42;102576.56;684166;28;1518;-62
2021/08/31 01:17:17;;;;;;;13.83;8.00;;;;;;;14.11;87.27;102577.47;685783;28;885;-62
2021/08/31 01:17:37;;;;;;;12.43;8.40;;;;;;;14.11;87.18;102577.47;686054;28;989;-62
2021/08/31 01:18:16;;;;;;;12.40;8.10;;;;;;;14.08;87.42;102577.56;685909;28;818;-62
2021/08/31 01:18:37;;;;;;;13.55;8.10;;;;;;;14.09;87.43;102583.72;685925;28;852;-63
2021/08/31 01:18:57;;;;;;;15.10;8.00;;;;;;;14.06;87.37;102579.38;685533;28;1561;-63
2021/08/31 01:19:23;;;;;;;12.80;7.83;;;;;;;14.07;87.32;102573.13;685994;28;1403;-63
2021/08/31 01:19:43;;;;;;;12.40;8.10;;;;;;;14.05;87.63;102582.94;688324;28;987;-63
2021/08/31 01:20:07;;;;;;;12.63;8.23;;;;;;;14.05;87.60;102582.06;686705;28;1320;-63
2021/08/31 01:20:30;;;;;;;12.02;8.00;;;;;;;14.06;87.36;102576.72;685733;28;906;-63
2021/08/31 01:20:58;;;;;;;11.88;7.85;;;;;;;14.07;87.40;102580.22;685611;28;836;-63
2021/08/31 01:21:18;;;;;;;11.65;7.90;;;;;;;14.02;87.79;102572.41;685834;28;947;-64
2021/08/31 01:21:38;;;;;;;13.27;8.57;;;;;;;14.04;87.81;102577.66;683997;28;1089;-63
2021/08/31 01:22:03;;;;;;;12.97;8.57;;;;;;;14.02;87.55;102577.72;683290;28;894;-62
2021/08/31 01:22:23;;;;;;;11.90;8.27;;;;;;;14.00;87.71;102584.84;683126;28;1530;-62
2021/08/31 01:22:44;;;;;;;12.53;7.80;;;;;;;14.02;87.75;102583.03;682882;29;821;-62
2021/08/31 01:23:04;;;;;;;13.87;8.10;;;;;;;14.02;87.61;102583.88;683171;29;1023;-64
2021/08/31 01:23:31;;;;;;;14.10;8.32;;;;;;;14.03;87.65;102584.75;683248;28;877;-64
2021/08/31 01:23:51;;;;;;;13.45;8.35;;;;;;;14.02;87.79;102580.38;683255;28;880;-63
2021/08/31 01:24:11;;;;;;;13.47;7.70;;;;;;;14.04;87.83;102586.50;683300;29;867;-62
2021/08/31 01:24:32;;;;;;;12.90;7.27;;;;;;;14.07;87.50;102585.53;683217;29;983;-64
2021/08/31 01:24:58;;;;;;;13.10;7.88;;;;;;;14.08;87.55;102582.84;683270;28;1493;-62
2021/08/31 01:25:21;;;;;;;12.07;8.00;;;;;;;14.07;87.60;102583.75;685998;28;883;-63
2021/08/31 01:25:44;;;;;;;13.18;8.13;;;;;;;14.04;87.43;102567.97;686003;28;878;-63
2021/08/31 01:26:05;;;;;;;14.57;8.40;;;;;;;14.06;87.33;102574.06;685949;28;823;-63
2021/08/31 01:26:27;;;;;;;14.70;8.23;;;;;;;14.04;87.51;102570.59;685849;28;967;-64
2021/08/31 01:26:49;;;;;;;13.05;8.07;;;;;;;14.04;87.34;102583.88;685929;28;1055;-63
2021/08/31 01:27:10;;;;;;;14.77;8.27;;;;;;;14.01;87.67;102576.00;685873;28;1005;-63
2021/08/31 01:27:31;;;;;;;13.32;8.00;;;;;;;14.05;87.44;102585.59;685943;28;1027;-63
2021/08/31 01:27:51;;;;;;;13.73;8.20;;;;;;;14.06;87.72;102582.00;685917;28;936;-63
2021/08/31 01:28:19;;;;;;;14.43;8.47;;;;;;;14.04;87.66;102581.22;685885;28;864;-63
2021/08/31 01:28:39;;;;;;;11.45;8.25;;;;;;;14.05;87.36;102577.63;685773;28;1918;-63
2021/08/31 01:29:02;;;;;;;12.17;8.07;;;;;;;14.04;87.48;102580.31;685737;28;1344;-63
2021/08/31 01:29:22;;;;;;;12.70;8.45;;;;;;;14.03;87.64;102584.75;686045;28;1147;-63
2021/08/31 01:29:43;;;;;;;13.60;8.40;;;;;;;14.04;87.68;102580.31;685969;28;881;-63
2021/08/31 01:30:07;;;;;;;12.55;8.48;;;;;;;14.01;87.57;102578.66;685831;28;926;-63
2021/08/31 01:30:28;;;;;;;13.50;8.55;;;;;;;14.00;87.48;102587.50;686012;28;837;-63
2021/08/31 01:30:49;;;;;;;12.73;8.60;;;;;;;13.99;87.73;102581.31;685837;28;1074;-63
2021/08/31 01:31:12;;;;;;;12.70;8.20;;;;;;;14.02;87.77;102586.53;685947;28;879;-63
2021/08/31 01:31:32;;;;;;;13.80;7.85;;;;;;;14.00;87.83;102585.72;685930;28;851;-63
2021/08/31 01:31:53;;;;;;;11.70;7.83;;;;;;;13.99;87.92;102588.41;685605;28;1561;-64
2021/08/31 01:32:13;;;;;;;13.25;7.93;;;;;;;14.00;87.92;102584.84;685971;28;895;-63
2021/08/31 01:32:33;;;;;;;15.30;7.77;;;;;;;13.99;87.98;102585.75;685981;28;995;-63
2021/08/31 01:32:54;;;;;;;13.53;8.10;;;;;;;13.97;87.78;102584.91;685419;28;971;-63
2021/08/31 01:33:19;;;;;;;13.70;8.60;;;;;;;13.96;87.88;102577.88;685938;28;865;-63
2021/08/31 01:33:39;;;;;;;13.00;8.35;;;;;;;13.96;87.84;102583.19;685677;28;955;-63
2021/08/31 01:34:00;;;;;;;13.20;8.50;;;;;;;13.96;87.87;102583.19;685949;28;821;-63
2021/08/31 01:34:20;;;;;;;12.53;8.37;;;;;;;13.98;87.95;102581.38;685962;28;1457;-63
2021/08/31 01:34:40;;;;;;;14.53;8.40;;;;;;;14.00;87.87;102590.13;688262;28;1276;-63
2021/08/31 01:35:01;;;;;;;14.73;8.20;;;;;;;13.99;87.76;102583.09;685859;28;1567;-64
2021/08/31 01:35:21;;;;;;;13.40;8.17;;;;;;;14.00;87.80;102587.50;685495;28;1557;-64
2021/08/31 01:35:41;;;;;;;11.37;7.87;;;;;;;13.97;87.79;102590.22;685855;28;983;-63
2021/08/31 01:36:22;;;;;;;12.52;8.10;;;;;;;13.96;87.86;102591.16;685924;28;799;-63
2021/08/31 01:36:42;;;;;;;13.00;8.25;;;;;;;13.95;87.84;102592.06;685918;28;821;-63
2021/08/31 01:37:03;;;;;;;14.93;8.27;;;;;;;13.97;88.10;102595.53;685930;28;960;-63
2021/08/31 01:37:23;;;;;;;13.60;8.10;;;;;;;13.96;87.76;102593.78;685732;28;1043;-63
2021/08/31 01:37:43;;;;;;;12.57;7.80;;;;;;;13.96;88.21;102593.78;686063;28;991;-63
2021/08/31 01:38:04;;;;;;;12.37;8.20;;;;;;;13.97;87.78;102595.53;685914;28;956;-63
2021/08/31 01:38:24;;;;;;;13.47;8.10;;;;;;;13.93;87.86;102594.75;685877;28;827;-63
2021/08/31 01:38:44;;;;;;;12.85;8.10;;;;;;;13.96;87.99;102593.78;685976;28;999;-63
2021/08/31 01:39:06;;;;;;;13.13;8.17;;;;;;;13.95;87.88;102592.06;685853;28;1423;-63
2021/08/31 01:39:27;;;;;;;13.35;8.18;;;;;;;13.91;88.33;102598.38;688189;28;868;-63
2021/08/31 01:39:47;;;;;;;13.10;8.30;;;;;;;13.89;88.42;102586.94;688422;28;1377;-63
2021/08/31 01:40:08;;;;;;;12.70;8.30;;;;;;;13.90;88.14;102593.97;688265;28;866;-63
2021/08/31 01:40:28;;;;;;;12.90;8.50;;;;;;;13.92;88.30;102589.50;688467;28;954;-63
2021/08/31 01:40:49;;;;;;;12.30;8.03;;;;;;;13.91;88.07;102593.06;688476;28;912;-64
2021/08/31 01:41:11;;;;;;;12.35;7.90;;;;;;;13.89;88.32;102586.94;688023;28;857;-63
2021/08/31 01:41:37;;;;;;;13.02;8.30;;;;;;;13.89;88.38;102592.22;685575;28;1163;-63
2021/08/31 01:41:57;;;;;;;14.15;8.18;;;;;;;13.91;87.98;102596.59;685820;28;1011;-63